Harrod, Ohio
Current Conditions -  °F | °C
As of 9:53 AM on Thursday 23 Oct 2014 (Local Time) from KAOH Reporting Station
Moderate Fog Moderate Fog  
Wind Chill: 38°   Ceiling: 100
Heat Index: 38°   Visibility: 0mi
Dew Point: 37°   Wind: 0mph
Humidity: 97%   Direction: NA
Pressure: 30.25"   Gusts: NA
Location:  40.71°N, 83.92°W
Report Text: KAOH 231353Z AUTO 00000KT M1/4SM FG VV001 03/03 A3025 RMK AO2 SLP251 T00330028
Loading
Personal Weather Stations






























Interactive Weather Map
Tropical Storm Tracking
New forecast layout! Learn more

10-Day Weather Forecast

Advertisements
Track Severe Weather on mobile